sensor_id;sensor_type;location;lat;lon;timestamp;pressure;altitude;pressure_sealevel;temperature;humidity
9235;BME280;4652;42.716;23.218;2023-04-25T00:00:06;94051.78;;;10.55;100.00
9235;BME280;4652;42.716;23.218;2023-04-25T00:06:50;94022.81;;;10.52;100.00
9235;BME280;4652;42.716;23.218;2023-04-25T00:13:33;94007.75;;;10.51;100.00
9235;BME280;4652;42.716;23.218;2023-04-25T00:20:15;94055.19;;;10.69;100.00
9235;BME280;4652;42.716;23.218;2023-04-25T00:26:59;94072.22;;;10.78;100.00
9235;BME280;4652;42.716;23.218;2023-04-25T00:33:41;94061.06;;;10.93;100.00
9235;BME280;4652;42.716;23.218;2023-04-25T00:40:23;94046.22;;;11.04;100.00
9235;BME280;4652;42.716;23.218;2023-04-25T00:47:07;94049.09;;;11.16;100.00
9235;BME280;4652;42.716;23.218;2023-04-25T00:53:49;94037.16;;;11.00;100.00
9235;BME280;4652;42.716;23.218;2023-04-25T01:08:04;94032.38;;;10.97;100.00
9235;BME280;4652;42.716;23.218;2023-04-25T07:18:32;93945.97;;;14.32;100.00
9235;BME280;4652;42.716;23.218;2023-04-25T07:25:13;93938.94;;;14.64;100.00
9235;BME280;4652;42.716;23.218;2023-04-25T07:31:55;93936.16;;;14.85;100.00
9235;BME280;4652;42.716;23.218;2023-04-25T07:38:39;93934.94;;;15.06;100.00
9235;BME280;4652;42.716;23.218;2023-04-25T07:45:21;93921.38;;;16.50;100.00
9235;BME280;4652;42.716;23.218;2023-04-25T07:52:04;93915.22;;;16.81;91.16
9235;BME280;4652;42.716;23.218;2023-04-25T07:58:48;93914.50;;;16.68;93.40
9235;BME280;4652;42.716;23.218;2023-04-25T08:05:30;93900.75;;;16.49;88.26
9235;BME280;4652;42.716;23.218;2023-04-25T08:12:12;93891.28;;;16.86;82.10
9235;BME280;4652;42.716;23.218;2023-04-25T08:18:55;93894.19;;;16.62;90.10
9235;BME280;4652;42.716;23.218;2023-04-25T08:25:37;93921.13;;;16.00;100.00
9235;BME280;4652;42.716;23.218;2023-04-25T08:32:19;93922.44;;;14.24;100.00
9235;BME280;4652;42.716;23.218;2023-04-25T08:39:03;93925.19;;;14.36;100.00
9235;BME280;4652;42.716;23.218;2023-04-25T08:45:45;93920.47;;;15.51;100.00
9235;BME280;4652;42.716;23.218;2023-04-25T08:52:28;93908.31;;;15.84;100.00
9235;BME280;4652;42.716;23.218;2023-04-25T08:59:13;93882.56;;;15.42;100.00
9235;BME280;4652;42.716;23.218;2023-04-25T09:05:55;93898.63;;;16.27;100.00
9235;BME280;4652;42.716;23.218;2023-04-25T09:12:37;93880.13;;;17.07;100.00
9235;BME280;4652;42.716;23.218;2023-04-25T09:19:23;93877.13;;;17.97;100.00
9235;BME280;4652;42.716;23.218;2023-04-25T09:26:07;93853.66;;;18.73;76.64
9235;BME280;4652;42.716;23.218;2023-04-25T09:32:49;93867.63;;;19.17;68.46
9235;BME280;4652;42.716;23.218;2023-04-25T09:39:34;93874.81;;;18.57;77.79
9235;BME280;4652;42.716;23.218;2023-04-25T09:46:16;93869.06;;;19.07;86.59
9235;BME280;4652;42.716;23.218;2023-04-25T09:53:04;93864.03;;;18.45;83.22
9235;BME280;4652;42.716;23.218;2023-04-25T09:59:50;93864.75;;;18.61;87.01
9235;BME280;4652;42.716;23.218;2023-04-25T10:06:34;93878.34;;;19.52;72.13
9235;BME280;4652;42.716;23.218;2023-04-25T10:13:16;93867.78;;;19.01;66.59
9235;BME280;4652;42.716;23.218;2023-04-25T10:20:00;93889.06;;;19.64;60.40
9235;BME280;4652;42.716;23.218;2023-04-25T10:26:43;93885.50;;;18.88;58.70
9235;BME280;4652;42.716;23.218;2023-04-25T10:33:36;93875.47;;;17.08;64.00
9235;BME280;4652;42.716;23.218;2023-04-25T10:40:22;93857.50;;;16.87;86.67
9235;BME280;4652;42.716;23.218;2023-04-25T10:47:06;93864.78;;;18.03;74.17
9235;BME280;4652;42.716;23.218;2023-04-25T10:54:08;93856.63;;;18.64;68.15
9235;BME280;4652;42.716;23.218;2023-04-25T11:00:51;93855.00;;;18.60;63.83
9235;BME280;4652;42.716;23.218;2023-04-25T11:07:38;93855.03;;;18.22;58.69
9235;BME280;4652;42.716;23.218;2023-04-25T11:14:20;93854.56;;;17.62;62.76
9235;BME280;4652;42.716;23.218;2023-04-25T11:21:04;93851.00;;;16.76;63.06
9235;BME280;4652;42.716;23.218;2023-04-25T11:27:52;93857.63;;;16.32;67.72
9235;BME280;4652;42.716;23.218;2023-04-25T11:34:35;93850.72;;;16.34;83.70
9235;BME280;4652;42.716;23.218;2023-04-25T11:41:18;93853.19;;;15.56;89.12
9235;BME280;4652;42.716;23.218;2023-04-25T11:48:01;93836.94;;;15.32;84.80
9235;BME280;4652;42.716;23.218;2023-04-25T11:54:44;93814.38;;;16.11;81.51
9235;BME280;4652;42.716;23.218;2023-04-25T12:01:30;93822.00;;;16.65;77.29
9235;BME280;4652;42.716;23.218;2023-04-25T12:08:13;93823.66;;;17.00;69.46
9235;BME280;4652;42.716;23.218;2023-04-25T12:14:55;93842.22;;;17.65;65.06
9235;BME280;4652;42.716;23.218;2023-04-25T12:21:39;93891.78;;;15.77;85.73
9235;BME280;4652;42.716;23.218;2023-04-25T12:28:21;93890.19;;;14.76;96.24
9235;BME280;4652;42.716;23.218;2023-04-25T12:35:05;93888.38;;;14.80;99.66
9235;BME280;4652;42.716;23.218;2023-04-25T12:41:50;93858.88;;;14.66;100.00
9235;BME280;4652;42.716;23.218;2023-04-25T12:48:34;93889.84;;;14.90;100.00
9235;BME280;4652;42.716;23.218;2023-04-25T12:55:16;93841.38;;;14.52;100.00
9235;BME280;4652;42.716;23.218;2023-04-25T13:08:05;93902.97;;;14.88;100.00
9235;BME280;4652;42.716;23.218;2023-04-25T13:14:47;93903.38;;;14.78;100.00
9235;BME280;4652;42.716;23.218;2023-04-25T13:21:30;93907.94;;;14.08;100.00
9235;BME280;4652;42.716;23.218;2023-04-25T13:28:13;93911.59;;;13.71;100.00
9235;BME280;4652;42.716;23.218;2023-04-25T13:34:56;93908.63;;;13.43;100.00
9235;BME280;4652;42.716;23.218;2023-04-25T13:41:38;93922.03;;;13.10;100.00
9235;BME280;4652;42.716;23.218;2023-04-25T13:48:21;93905.66;;;12.98;100.00
9235;BME280;4652;42.716;23.218;2023-04-25T13:55:04;93906.25;;;13.62;100.00
9235;BME280;4652;42.716;23.218;2023-04-25T14:01:47;93876.91;;;14.05;100.00
9235;BME280;4652;42.716;23.218;2023-04-25T14:08:30;93870.09;;;14.77;100.00
9235;BME280;4652;42.716;23.218;2023-04-25T14:15:12;93862.84;;;15.17;100.00
9235;BME280;4652;42.716;23.218;2023-04-25T14:21:54;93858.91;;;14.79;100.00
9235;BME280;4652;42.716;23.218;2023-04-25T14:28:38;93866.81;;;14.96;100.00
9235;BME280;4652;42.716;23.218;2023-04-25T14:35:20;93857.19;;;14.98;100.00
9235;BME280;4652;42.716;23.218;2023-04-25T14:42:02;93850.03;;;15.42;100.00
9235;BME280;4652;42.716;23.218;2023-04-25T14:48:46;93843.41;;;15.79;100.00
9235;BME280;4652;42.716;23.218;2023-04-25T14:55:28;93811.97;;;15.66;100.00
9235;BME280;4652;42.716;23.218;2023-04-25T15:02:11;93815.19;;;15.56;100.00
9235;BME280;4652;42.716;23.218;2023-04-25T15:08:54;93826.53;;;15.46;100.00
9235;BME280;4652;42.716;23.218;2023-04-25T15:15:37;93833.06;;;15.57;100.00
9235;BME280;4652;42.716;23.218;2023-04-25T15:22:19;93822.69;;;15.47;100.00
9235;BME280;4652;42.716;23.218;2023-04-25T15:29:03;93808.66;;;15.45;100.00
9235;BME280;4652;42.716;23.218;2023-04-25T15:35:45;93819.34;;;15.14;100.00
9235;BME280;4652;42.716;23.218;2023-04-25T15:42:27;93788.44;;;14.79;100.00
9235;BME280;4652;42.716;23.218;2023-04-25T15:49:10;93827.97;;;14.67;100.00
9235;BME280;4652;42.716;23.218;2023-04-25T15:55:52;93838.06;;;14.22;100.00
9235;BME280;4652;42.716;23.218;2023-04-25T16:02:34;93843.47;;;13.07;100.00
9235;BME280;4652;42.716;23.218;2023-04-25T16:09:18;93845.09;;;12.78;100.00
9235;BME280;4652;42.716;23.218;2023-04-25T16:16:01;93840.41;;;12.87;100.00
9235;BME280;4652;42.716;23.218;2023-04-25T16:22:43;93851.00;;;12.72;100.00
9235;BME280;4652;42.716;23.218;2023-04-25T16:29:28;93831.72;;;12.53;100.00
9235;BME280;4652;42.716;23.218;2023-04-25T16:36:10;93853.72;;;12.34;100.00
9235;BME280;4652;42.716;23.218;2023-04-25T16:42:52;93870.63;;;11.88;100.00
9235;BME280;4652;42.716;23.218;2023-04-25T16:49:36;93859.72;;;11.67;100.00
9235;BME280;4652;42.716;23.218;2023-04-25T16:56:18;93889.38;;;11.42;100.00
9235;BME280;4652;42.716;23.218;2023-04-25T17:03:01;93897.91;;;11.18;100.00
9235;BME280;4652;42.716;23.218;2023-04-25T17:09:44;93893.91;;;10.98;100.00
9235;BME280;4652;42.716;23.218;2023-04-25T17:16:33;93915.31;;;11.03;100.00
9235;BME280;4652;42.716;23.218;2023-04-25T17:23:16;93884.81;;;10.77;100.00
9235;BME280;4652;42.716;23.218;2023-04-25T17:30:00;93943.84;;;11.04;100.00
9235;BME280;4652;42.716;23.218;2023-04-25T17:36:43;93942.06;;;11.00;100.00
9235;BME280;4652;42.716;23.218;2023-04-25T17:43:25;93884.19;;;10.32;100.00
9235;BME280;4652;42.716;23.218;2023-04-25T17:50:09;93941.34;;;10.69;100.00
9235;BME280;4652;42.716;23.218;2023-04-25T17:56:52;93955.19;;;10.84;100.00
9235;BME280;4652;42.716;23.218;2023-04-25T18:03:34;93963.13;;;10.89;100.00
9235;BME280;4652;42.716;23.218;2023-04-25T18:10:19;93972.94;;;10.94;100.00
9235;BME280;4652;42.716;23.218;2023-04-25T18:17:01;93981.94;;;10.81;100.00
9235;BME280;4652;42.716;23.218;2023-04-25T18:23:46;93965.78;;;10.50;100.00
9235;BME280;4652;42.716;23.218;2023-04-25T18:30:30;93976.06;;;10.48;100.00
9235;BME280;4652;42.716;23.218;2023-04-25T18:37:12;93986.84;;;10.48;100.00
9235;BME280;4652;42.716;23.218;2023-04-25T18:43:54;93975.06;;;10.35;100.00
9235;BME280;4652;42.716;23.218;2023-04-25T18:50:39;93873.63;;;9.61;100.00
9235;BME280;4652;42.716;23.218;2023-04-25T18:57:23;93980.16;;;10.15;100.00
9235;BME280;4652;42.716;23.218;2023-04-25T19:18:28;93971.94;;;11.20;100.00
9235;BME280;4652;42.716;23.218;2023-04-25T19:25:11;93978.25;;;11.16;100.00
9235;BME280;4652;42.716;23.218;2023-04-25T19:31:53;93977.31;;;11.20;100.00
9235;BME280;4652;42.716;23.218;2023-04-25T19:38:38;93989.06;;;11.25;100.00
9235;BME280;4652;42.716;23.218;2023-04-25T19:45:20;93977.81;;;11.23;100.00
9235;BME280;4652;42.716;23.218;2023-04-25T19:52:02;93975.56;;;11.25;100.00
9235;BME280;4652;42.716;23.218;2023-04-25T20:06:26;93948.78;;;10.72;100.00
9235;BME280;4652;42.716;23.218;2023-04-25T20:13:09;93979.41;;;10.84;100.00
9235;BME280;4652;42.716;23.218;2023-04-25T20:19:51;93976.25;;;10.82;100.00
9235;BME280;4652;42.716;23.218;2023-04-25T20:26:34;93978.84;;;10.96;100.00
9235;BME280;4652;42.716;23.218;2023-04-25T20:33:16;93984.09;;;11.09;100.00
9235;BME280;4652;42.716;23.218;2023-04-25T20:39:58;93979.31;;;10.98;100.00
9235;BME280;4652;42.716;23.218;2023-04-25T20:46:42;93963.22;;;10.76;100.00
9235;BME280;4652;42.716;23.218;2023-04-25T20:53:23;93965.47;;;10.82;100.00
9235;BME280;4652;42.716;23.218;2023-04-25T21:00:07;93974.94;;;10.71;100.00
9235;BME280;4652;42.716;23.218;2023-04-25T21:06:57;93973.25;;;10.53;100.00
9235;BME280;4652;42.716;23.218;2023-04-25T21:13:41;93968.88;;;10.35;100.00
9235;BME280;4652;42.716;23.218;2023-04-25T21:20:22;93974.41;;;10.30;100.00
9235;BME280;4652;42.716;23.218;2023-04-25T21:27:06;93968.69;;;10.31;100.00
9235;BME280;4652;42.716;23.218;2023-04-25T21:33:48;93959.44;;;10.46;100.00
9235;BME280;4652;42.716;23.218;2023-04-25T21:40:30;93960.72;;;10.48;100.00
9235;BME280;4652;42.716;23.218;2023-04-25T21:47:13;93966.78;;;10.54;100.00
9235;BME280;4652;42.716;23.218;2023-04-25T21:53:55;93964.59;;;10.65;100.00
9235;BME280;4652;42.716;23.218;2023-04-25T22:00:40;93963.97;;;10.68;100.00
9235;BME280;4652;42.716;23.218;2023-04-25T22:07:23;93957.66;;;10.72;100.00
9235;BME280;4652;42.716;23.218;2023-04-25T22:14:05;93959.56;;;10.72;100.00
9235;BME280;4652;42.716;23.218;2023-04-25T22:20:47;93959.13;;;10.78;100.00
9235;BME280;4652;42.716;23.218;2023-04-25T22:27:30;93952.63;;;10.79;100.00
9235;BME280;4652;42.716;23.218;2023-04-25T22:34:13;93945.50;;;10.83;100.00
9235;BME280;4652;42.716;23.218;2023-04-25T22:40:55;93949.44;;;10.77;100.00
9235;BME280;4652;42.716;23.218;2023-04-25T22:47:39;93950.72;;;10.71;100.00
9235;BME280;4652;42.716;23.218;2023-04-25T22:54:21;93935.09;;;10.51;100.00
9235;BME280;4652;42.716;23.218;2023-04-25T23:01:04;93946.69;;;10.60;100.00
9235;BME280;4652;42.716;23.218;2023-04-25T23:07:47;93946.13;;;10.41;100.00
9235;BME280;4652;42.716;23.218;2023-04-25T23:14:29;93947.13;;;10.23;100.00
9235;BME280;4652;42.716;23.218;2023-04-25T23:21:12;93935.22;;;9.93;100.00
9235;BME280;4652;42.716;23.218;2023-04-25T23:27:55;93933.13;;;9.68;100.00
9235;BME280;4652;42.716;23.218;2023-04-25T23:34:37;93931.78;;;9.57;100.00
9235;BME280;4652;42.716;23.218;2023-04-25T23:41:19;93916.97;;;9.45;100.00
9235;BME280;4652;42.716;23.218;2023-04-25T23:48:03;93918.09;;;9.31;100.00
9235;BME280;4652;42.716;23.218;2023-04-25T23:54:45;93908.22;;;9.18;100.00
